createdAt,value
2022-10-18T00:00:08.349Z,26.42
2022-10-18T00:00:38.378Z,26.40
2022-10-18T00:01:08.408Z,26.37
2022-10-18T00:01:38.535Z,26.39
2022-10-18T00:02:08.650Z,26.40
2022-10-18T00:02:38.565Z,26.39
2022-10-18T00:03:08.591Z,26.42
2022-10-18T00:03:38.701Z,26.39
2022-10-18T00:04:08.722Z,26.39
2022-10-18T00:04:38.750Z,26.39
2022-10-18T00:05:08.770Z,26.39
2022-10-18T00:05:38.797Z,26.37
2022-10-18T00:06:08.836Z,26.42
2022-10-18T00:06:42.601Z,26.40
2022-10-18T00:07:08.974Z,26.39
2022-10-18T00:07:38.999Z,26.37
2022-10-18T00:08:09.026Z,26.39
2022-10-18T00:08:39.074Z,26.37
2022-10-18T00:09:09.078Z,26.37
2022-10-18T00:09:39.104Z,26.37
2022-10-18T00:10:09.128Z,26.36
2022-10-18T00:10:39.160Z,26.36
2022-10-18T00:11:09.185Z,26.39
2022-10-18T00:11:39.213Z,26.39
2022-10-18T00:12:09.239Z,26.36
2022-10-18T00:12:39.319Z,26.37
2022-10-18T00:13:09.334Z,26.37
2022-10-18T00:13:39.355Z,26.37
2022-10-18T00:14:09.385Z,26.36
2022-10-18T00:14:39.405Z,26.39
2022-10-18T00:15:09.430Z,26.36
2022-10-18T00:15:39.462Z,26.37
2022-10-18T00:16:09.492Z,26.40
2022-10-18T00:16:39.515Z,26.40
2022-10-18T00:17:09.565Z,26.36
2022-10-18T00:17:39.570Z,26.39
2022-10-18T00:18:09.593Z,26.37
2022-10-18T00:18:39.618Z,26.37
2022-10-18T00:19:09.653Z,26.36
2022-10-18T00:19:39.679Z,26.37
2022-10-18T00:20:09.706Z,26.39
2022-10-18T00:20:39.732Z,26.37
2022-10-18T00:21:09.770Z,26.37
2022-10-18T00:21:39.883Z,26.37
2022-10-18T00:22:09.877Z,26.37
2022-10-18T00:22:39.903Z,26.36
2022-10-18T00:23:09.938Z,26.39
2022-10-18T00:23:39.965Z,26.37
2022-10-18T00:24:09.992Z,26.39
2022-10-18T00:24:40.012Z,26.37
2022-10-18T00:25:10.043Z,26.36
2022-10-18T00:25:40.069Z,26.37
2022-10-18T00:26:10.100Z,26.39
2022-10-18T00:26:40.128Z,26.39
2022-10-18T00:27:10.156Z,26.36
2022-10-18T00:27:40.183Z,26.37
2022-10-18T00:28:10.205Z,26.39
2022-10-18T00:28:40.276Z,26.39
2022-10-18T00:29:10.314Z,26.37
2022-10-18T00:29:40.332Z,26.40
2022-10-18T00:30:10.363Z,26.37
2022-10-18T00:30:40.465Z,26.39
2022-10-18T00:31:10.505Z,26.36
2022-10-18T00:31:40.527Z,26.37
2022-10-18T00:32:10.557Z,26.36
2022-10-18T00:32:40.606Z,26.37
2022-10-18T00:33:10.611Z,26.36
2022-10-18T00:33:40.637Z,26.37
2022-10-18T00:34:10.662Z,26.34
2022-10-18T00:34:40.689Z,26.37
2022-10-18T00:35:10.776Z,26.34
2022-10-18T00:35:40.806Z,26.36
2022-10-18T00:36:10.836Z,26.36
2022-10-18T00:36:40.870Z,26.37
2022-10-18T00:37:10.896Z,26.37
2022-10-18T00:37:40.921Z,26.37
2022-10-18T00:38:10.941Z,26.36
2022-10-18T00:38:40.981Z,26.36
2022-10-18T00:39:11.006Z,26.37
2022-10-18T00:39:41.090Z,26.37
2022-10-18T00:40:11.104Z,26.36
2022-10-18T00:40:41.124Z,26.36
2022-10-18T00:41:11.164Z,26.37
2022-10-18T00:41:41.185Z,26.36
2022-10-18T00:42:11.209Z,26.36
2022-10-18T00:42:41.237Z,26.36
2022-10-18T00:43:11.257Z,26.36
2022-10-18T00:43:41.284Z,26.34
2022-10-18T00:44:11.307Z,26.37
2022-10-18T00:44:41.330Z,26.36
2022-10-18T00:45:11.357Z,26.37
2022-10-18T00:45:41.382Z,26.37
2022-10-18T00:46:11.412Z,26.37
2022-10-18T00:46:41.422Z,26.39
2022-10-18T00:47:11.538Z,26.37
2022-10-18T00:47:41.651Z,26.37
2022-10-18T00:48:11.788Z,26.37
2022-10-18T00:48:41.997Z,26.39
2022-10-18T00:49:11.988Z,26.36
2022-10-18T00:49:41.970Z,26.34
2022-10-18T00:50:12.084Z,26.34
2022-10-18T00:50:42.193Z,26.34
2022-10-18T00:51:12.312Z,26.36
2022-10-18T00:51:42.427Z,26.37
2022-10-18T00:52:12.545Z,26.37
2022-10-18T00:52:42.537Z,26.36
2022-10-18T00:53:12.648Z,26.39
2022-10-18T00:53:42.756Z,26.36
2022-10-18T00:54:12.875Z,26.37
2022-10-18T00:54:42.988Z,26.36
2022-10-18T00:55:13.102Z,26.37
2022-10-18T00:55:43.217Z,26.37
2022-10-18T00:56:13.332Z,26.36
2022-10-18T00:56:43.332Z,26.36
2022-10-18T00:57:13.362Z,26.36
2022-10-18T00:57:43.465Z,26.37
2022-10-18T00:58:13.493Z,26.34
2022-10-18T00:58:43.523Z,26.36
2022-10-18T00:59:13.552Z,26.36
2022-10-18T00:59:43.572Z,26.34
2022-10-18T01:00:13.598Z,26.36
2022-10-18T01:00:43.629Z,26.36
2022-10-18T01:01:13.724Z,26.37
2022-10-18T01:01:43.869Z,26.37
2022-10-18T01:02:13.798Z,26.34
2022-10-18T01:02:43.789Z,26.37
2022-10-18T01:03:13.843Z,26.36
2022-10-18T01:03:43.831Z,26.33
2022-10-18T01:04:13.862Z,26.34
2022-10-18T01:04:43.888Z,26.37
2022-10-18T01:05:13.913Z,26.37
2022-10-18T01:05:43.935Z,26.37
2022-10-18T01:06:13.965Z,26.36
2022-10-18T01:06:44.058Z,26.36
2022-10-18T01:07:14.060Z,26.36
2022-10-18T01:07:44.086Z,26.34
2022-10-18T01:08:14.117Z,26.36
2022-10-18T01:08:44.145Z,26.34
2022-10-18T01:09:14.177Z,26.34
2022-10-18T01:09:44.203Z,26.36
2022-10-18T01:10:14.228Z,26.36
2022-10-18T01:10:44.250Z,26.36
2022-10-18T01:11:14.277Z,26.36
2022-10-18T01:11:44.308Z,26.34
2022-10-18T01:12:14.332Z,26.36
2022-10-18T01:12:44.361Z,26.36
2022-10-18T01:13:14.394Z,26.34
2022-10-18T01:13:44.415Z,26.34
2022-10-18T01:14:14.446Z,26.37
2022-10-18T01:14:44.471Z,26.36
2022-10-18T01:15:14.494Z,26.36
2022-10-18T01:15:44.586Z,26.34
2022-10-18T01:16:14.587Z,26.36
2022-10-18T01:16:44.612Z,26.34
2022-10-18T01:17:14.635Z,26.34
2022-10-18T01:17:44.665Z,26.36
2022-10-18T01:18:14.692Z,26.36
2022-10-18T01:18:44.745Z,26.33
2022-10-18T01:19:14.744Z,26.36
2022-10-18T01:19:44.772Z,26.36
2022-10-18T01:20:14.798Z,26.37
2022-10-18T01:20:44.816Z,26.36
2022-10-18T01:21:14.851Z,26.33
2022-10-18T01:21:44.873Z,26.33
2022-10-18T01:22:14.908Z,26.34
2022-10-18T01:22:44.931Z,26.36
2022-10-18T01:23:14.954Z,26.36
2022-10-18T01:23:44.986Z,26.36
2022-10-18T01:24:15.008Z,26.34
2022-10-18T01:24:45.045Z,26.37
2022-10-18T01:25:15.069Z,26.36
2022-10-18T01:25:45.091Z,26.36
2022-10-18T01:26:15.138Z,26.34
2022-10-18T01:26:45.158Z,26.34
2022-10-18T01:27:15.189Z,26.34
2022-10-18T01:27:45.211Z,26.36
2022-10-18T01:28:15.234Z,26.34
2022-10-18T01:28:45.325Z,26.36
2022-10-18T01:29:15.338Z,26.37
2022-10-18T01:29:45.365Z,26.36
2022-10-18T01:30:15.391Z,26.36
2022-10-18T01:30:45.414Z,26.34
2022-10-18T01:31:15.457Z,26.34
2022-10-18T01:31:45.480Z,26.34
2022-10-18T01:32:15.506Z,26.36
2022-10-18T01:32:45.531Z,26.36
2022-10-18T01:33:15.559Z,26.36
2022-10-18T01:33:45.584Z,26.36
2022-10-18T01:34:15.669Z,26.36
2022-10-18T01:34:45.649Z,26.33
2022-10-18T01:35:15.672Z,26.36
2022-10-18T01:35:45.697Z,26.36
2022-10-18T01:36:15.725Z,26.36
2022-10-18T01:36:45.745Z,26.36
2022-10-18T01:37:15.777Z,26.36
2022-10-18T01:37:45.805Z,26.33
2022-10-18T01:38:15.832Z,26.36
2022-10-18T01:38:45.854Z,26.36
2022-10-18T01:39:15.889Z,26.33
2022-10-18T01:39:45.916Z,26.34
2022-10-18T01:40:15.942Z,26.36
2022-10-18T01:40:45.971Z,26.34
2022-10-18T01:41:16.166Z,26.36
2022-10-18T01:41:46.068Z,26.36
2022-10-18T01:42:16.102Z,26.34
2022-10-18T01:42:46.124Z,26.34
2022-10-18T01:43:16.152Z,26.36
2022-10-18T01:43:46.173Z,26.34
2022-10-18T01:44:16.208Z,26.34
2022-10-18T01:44:46.242Z,26.36
2022-10-18T01:45:16.270Z,26.37
2022-10-18T01:45:46.296Z,26.34
2022-10-18T01:46:16.322Z,26.34
2022-10-18T01:46:46.321Z,26.34
2022-10-18T01:47:16.439Z,26.36
2022-10-18T01:47:46.549Z,26.37
2022-10-18T01:48:16.660Z,26.36
2022-10-18T01:48:46.768Z,26.37
2022-10-18T01:49:16.927Z,26.36
2022-10-18T01:49:46.944Z,26.37
2022-10-18T01:50:17.033Z,26.34
2022-10-18T01:50:47.148Z,26.36
2022-10-18T01:51:17.264Z,26.36
2022-10-18T01:51:47.369Z,26.36
2022-10-18T01:52:17.486Z,26.37
2022-10-18T01:52:47.600Z,26.37
2022-10-18T01:53:17.719Z,26.39
2022-10-18T01:53:47.831Z,26.34
2022-10-18T01:54:17.945Z,26.36
2022-10-18T01:54:48.054Z,26.39
2022-10-18T01:55:18.115Z,26.40
2022-10-18T01:55:48.222Z,26.37
2022-10-18T01:56:18.260Z,26.36
2022-10-18T01:56:48.270Z,26.34
2022-10-18T01:57:18.293Z,26.37
2022-10-18T01:57:48.318Z,26.36
2022-10-18T01:58:18.345Z,26.37
2022-10-18T01:58:48.375Z,26.36
2022-10-18T01:59:18.399Z,26.39
2022-10-18T01:59:48.427Z,26.37
2022-10-18T02:00:18.458Z,26.34
2022-10-18T02:00:48.483Z,26.36
2022-10-18T02:01:18.515Z,26.37
2022-10-18T02:01:48.537Z,26.36
2022-10-18T02:02:18.565Z,26.36
2022-10-18T02:02:48.592Z,26.36
2022-10-18T02:03:18.624Z,26.37
2022-10-18T02:03:48.650Z,26.37
2022-10-18T02:04:18.674Z,26.36
2022-10-18T02:04:48.700Z,26.37
2022-10-18T02:05:18.746Z,26.36
2022-10-18T02:05:48.747Z,26.37
2022-10-18T02:06:18.774Z,26.36
2022-10-18T02:06:48.801Z,26.36
2022-10-18T02:07:18.831Z,26.36
2022-10-18T02:07:55.351Z,26.36
2022-10-18T02:08:23.145Z,26.39
2022-10-18T02:08:48.941Z,26.37
2022-10-18T02:09:18.965Z,26.36
2022-10-18T02:09:48.990Z,26.37
2022-10-18T02:10:19.020Z,26.37
2022-10-18T02:10:49.048Z,26.37
2022-10-18T02:11:19.094Z,26.36
2022-10-18T02:11:49.124Z,26.39
2022-10-18T02:12:19.161Z,26.37
2022-10-18T02:12:49.178Z,26.39
2022-10-18T02:13:19.209Z,26.37
2022-10-18T02:13:49.232Z,26.36
2022-10-18T02:14:19.257Z,26.37
2022-10-18T02:14:49.282Z,26.34
2022-10-18T02:15:19.307Z,26.37
2022-10-18T02:15:49.340Z,26.39
2022-10-18T02:16:19.368Z,26.36
2022-10-18T02:16:49.393Z,26.37
2022-10-18T02:17:19.417Z,26.36
2022-10-18T02:17:49.448Z,26.34
2022-10-18T02:18:19.475Z,26.36
2022-10-18T02:18:49.498Z,26.39
2022-10-18T02:19:19.578Z,26.36
2022-10-18T02:19:49.585Z,26.36
2022-10-18T02:20:19.617Z,26.34
2022-10-18T02:20:49.668Z,26.36
2022-10-18T02:21:19.678Z,26.34
2022-10-18T02:21:49.708Z,26.34
2022-10-18T02:22:19.730Z,26.37
2022-10-18T02:22:49.758Z,26.34
2022-10-18T02:23:19.778Z,26.36
2022-10-18T02:23:49.805Z,26.36
2022-10-18T02:24:19.829Z,26.36
2022-10-18T02:24:49.861Z,26.34
2022-10-18T02:25:19.883Z,26.36
2022-10-18T02:25:49.905Z,26.34
2022-10-18T02:26:19.944Z,26.36
2022-10-18T02:26:49.972Z,26.37
2022-10-18T02:27:19.998Z,26.34
2022-10-18T02:27:50.028Z,26.34
2022-10-18T02:28:20.149Z,26.33
2022-10-18T02:28:50.056Z,26.34
2022-10-18T02:29:20.081Z,26.34
2022-10-18T02:29:50.111Z,26.34
2022-10-18T02:30:20.138Z,26.34
2022-10-18T02:30:50.159Z,26.33
2022-10-18T02:31:20.193Z,26.33
2022-10-18T02:31:50.213Z,26.34
2022-10-18T02:32:20.246Z,26.36
2022-10-18T02:32:50.275Z,26.36
2022-10-18T02:33:20.293Z,26.33
2022-10-18T02:33:50.326Z,26.33
2022-10-18T02:34:20.346Z,26.33
2022-10-18T02:34:50.374Z,26.34
2022-10-18T02:35:20.400Z,26.36
2022-10-18T02:35:50.424Z,26.33
2022-10-18T02:36:20.475Z,26.33
2022-10-18T02:36:50.489Z,26.36
2022-10-18T02:37:20.564Z,26.32
2022-10-18T02:37:50.571Z,26.34
2022-10-18T02:38:20.597Z,26.33
2022-10-18T02:38:50.620Z,26.32
2022-10-18T02:39:20.643Z,26.34
2022-10-18T02:39:50.670Z,26.34
2022-10-18T02:40:20.696Z,26.33
2022-10-18T02:40:50.723Z,26.34
2022-10-18T02:41:20.761Z,26.33
2022-10-18T02:41:50.784Z,26.32
2022-10-18T02:42:20.810Z,26.32
2022-10-18T02:42:50.834Z,26.34
2022-10-18T02:43:20.861Z,26.32
2022-10-18T02:43:50.884Z,26.34
2022-10-18T02:44:20.917Z,26.32
2022-10-18T02:44:50.962Z,26.32
2022-10-18T02:45:20.978Z,26.32
2022-10-18T02:45:51.006Z,26.33
2022-10-18T02:46:21.107Z,26.36
2022-10-18T02:46:51.122Z,26.33
2022-10-18T02:47:21.236Z,26.36
2022-10-18T02:47:51.345Z,26.34
2022-10-18T02:48:21.458Z,26.34
2022-10-18T02:48:51.574Z,26.33
2022-10-18T02:49:21.684Z,26.33
2022-10-18T02:49:51.802Z,26.34
2022-10-18T02:50:21.910Z,26.34
2022-10-18T02:50:52.028Z,26.32
2022-10-18T02:51:22.171Z,26.33
2022-10-18T02:51:52.181Z,26.36
2022-10-18T02:52:22.273Z,26.33
2022-10-18T02:52:52.381Z,26.33
2022-10-18T02:53:22.497Z,26.34
2022-10-18T02:53:52.611Z,26.34
2022-10-18T02:54:22.720Z,26.32
2022-10-18T02:54:52.838Z,26.34
2022-10-18T02:55:23.019Z,26.33
2022-10-18T02:55:52.999Z,26.32
2022-10-18T02:56:23.127Z,26.34
2022-10-18T02:56:53.147Z,26.33
2022-10-18T02:57:23.173Z,26.33
2022-10-18T02:57:53.200Z,26.33
2022-10-18T02:58:23.226Z,26.33
2022-10-18T02:58:53.254Z,26.34
2022-10-18T02:59:23.278Z,26.32
2022-10-18T02:59:53.299Z,26.32
2022-10-18T03:00:23.320Z,26.34
2022-10-18T03:00:53.350Z,26.33
2022-10-18T03:01:23.446Z,26.33
2022-10-18T03:01:53.544Z,26.33
2022-10-18T03:02:23.449Z,26.33
2022-10-18T03:02:53.470Z,26.33
2022-10-18T03:03:23.494Z,26.29
2022-10-18T03:03:53.518Z,26.32
2022-10-18T03:04:23.573Z,26.34
2022-10-18T03:04:53.580Z,26.33
2022-10-18T03:05:23.604Z,26.32
2022-10-18T03:05:53.634Z,26.36
2022-10-18T03:06:23.769Z,26.33
2022-10-18T03:06:53.669Z,26.32
2022-10-18T03:07:23.717Z,26.33
2022-10-18T03:07:53.722Z,26.33
2022-10-18T03:08:23.743Z,26.34
2022-10-18T03:08:53.772Z,26.34
2022-10-18T03:09:23.795Z,26.32
2022-10-18T03:09:53.818Z,26.33
2022-10-18T03:10:23.844Z,26.33
2022-10-18T03:10:53.874Z,26.32
2022-10-18T03:11:23.911Z,26.32
2022-10-18T03:11:53.939Z,26.32
2022-10-18T03:12:23.959Z,26.33
2022-10-18T03:12:53.986Z,26.30
2022-10-18T03:13:24.052Z,26.32
2022-10-18T03:13:54.063Z,26.33
2022-10-18T03:14:24.084Z,26.32
2022-10-18T03:14:54.109Z,26.32
2022-10-18T03:15:24.138Z,26.33
2022-10-18T03:15:54.163Z,26.33
2022-10-18T03:16:24.209Z,26.32
2022-10-18T03:16:54.238Z,26.33
2022-10-18T03:17:24.258Z,26.33
2022-10-18T03:17:54.290Z,26.33
2022-10-18T03:18:24.312Z,26.32
2022-10-18T03:18:54.341Z,26.32
2022-10-18T03:19:24.367Z,26.32
2022-10-18T03:19:54.388Z,26.30
2022-10-18T03:20:24.414Z,26.34
2022-10-18T03:20:54.438Z,26.32
2022-10-18T03:21:24.469Z,26.33
2022-10-18T03:21:54.495Z,26.33
2022-10-18T03:22:24.568Z,26.32
2022-10-18T03:22:54.600Z,26.32
2022-10-18T03:23:24.599Z,26.32
2022-10-18T03:23:54.623Z,26.33
2022-10-18T03:24:24.648Z,26.33
2022-10-18T03:24:54.681Z,26.32
2022-10-18T03:25:24.704Z,26.33
2022-10-18T03:25:54.729Z,26.33
2022-10-18T03:26:24.766Z,26.32
2022-10-18T03:26:54.789Z,26.30
2022-10-18T03:27:24.814Z,26.32
2022-10-18T03:27:54.844Z,26.30
2022-10-18T03:28:24.924Z,26.30
2022-10-18T03:28:55.132Z,26.33
2022-10-18T03:29:25.065Z,26.32
2022-10-18T03:29:55.097Z,26.32
2022-10-18T03:30:25.123Z,26.30
2022-10-18T03:30:55.153Z,26.30
2022-10-18T03:31:25.345Z,26.30
2022-10-18T03:31:55.226Z,26.32
2022-10-18T03:32:25.248Z,26.33
2022-10-18T03:32:55.271Z,26.34
2022-10-18T03:33:25.295Z,26.32
2022-10-18T03:33:55.326Z,26.33
2022-10-18T03:34:25.354Z,26.32
2022-10-18T03:34:55.376Z,26.32
2022-10-18T03:35:25.398Z,26.32
2022-10-18T03:35:55.422Z,26.30
2022-10-18T03:36:25.468Z,26.30
2022-10-18T03:36:55.489Z,26.34
2022-10-18T03:37:25.519Z,26.33
2022-10-18T03:37:55.561Z,26.32
2022-10-18T03:38:25.611Z,26.30
2022-10-18T03:38:55.613Z,26.30
2022-10-18T03:39:25.636Z,26.33
2022-10-18T03:39:55.668Z,26.30
2022-10-18T03:40:25.745Z,26.30
2022-10-18T03:40:55.765Z,26.34
2022-10-18T03:41:25.807Z,26.33
2022-10-18T03:41:55.836Z,26.30
2022-10-18T03:42:25.863Z,26.32
2022-10-18T03:42:55.890Z,26.32
2022-10-18T03:43:25.919Z,26.30
2022-10-18T03:43:55.940Z,26.33
2022-10-18T03:44:25.969Z,26.32
2022-10-18T03:44:55.998Z,26.32
2022-10-18T03:45:28.960Z,26.32
2022-10-18T03:45:56.062Z,26.30
2022-10-18T03:46:26.087Z,26.30
2022-10-18T03:46:56.203Z,26.33
2022-10-18T03:47:26.315Z,26.32
2022-10-18T03:47:56.429Z,26.29
2022-10-18T03:48:26.550Z,26.30
2022-10-18T03:48:56.658Z,26.30
2022-10-18T03:49:26.797Z,26.30
2022-10-18T03:49:57.330Z,26.32
2022-10-18T03:50:26.868Z,26.30
2022-10-18T03:50:56.985Z,26.32
2022-10-18T03:51:27.106Z,26.33
2022-10-18T03:51:57.101Z,26.27
2022-10-18T03:52:27.212Z,26.27
2022-10-18T03:52:57.323Z,26.27
2022-10-18T03:53:27.471Z,26.27
2022-10-18T03:53:57.552Z,26.27
2022-10-18T03:54:27.666Z,26.26
2022-10-18T03:54:57.785Z,26.24
2022-10-18T03:55:27.893Z,26.29
2022-10-18T03:55:58.011Z,26.26
2022-10-18T03:56:28.127Z,26.27
2022-10-18T03:56:58.151Z,26.29
2022-10-18T03:57:28.174Z,26.29
2022-10-18T03:57:58.203Z,26.29
2022-10-18T03:58:28.316Z,26.27
2022-10-18T03:58:58.341Z,26.29
2022-10-18T03:59:28.364Z,26.30
2022-10-18T03:59:58.390Z,26.30
2022-10-18T04:00:28.412Z,26.30
2022-10-18T04:00:58.448Z,26.30
2022-10-18T04:01:28.517Z,26.32
2022-10-18T04:01:58.585Z,26.33
2022-10-18T04:02:28.734Z,26.29
2022-10-18T04:02:58.602Z,26.23
2022-10-18T04:03:28.631Z,26.24
2022-10-18T04:03:58.656Z,26.24
2022-10-18T04:04:28.682Z,26.27
2022-10-18T04:04:58.718Z,26.27
2022-10-18T04:05:28.733Z,26.30
2022-10-18T04:05:58.762Z,26.27
2022-10-18T04:06:28.806Z,26.24
2022-10-18T04:06:58.832Z,26.26
2022-10-18T04:07:28.919Z,26.24
2022-10-18T04:07:58.921Z,26.26
2022-10-18T04:08:28.948Z,26.27
2022-10-18T04:08:58.993Z,26.30
2022-10-18T04:09:28.993Z,26.29
2022-10-18T04:09:59.019Z,26.24
2022-10-18T04:10:29.042Z,26.23
2022-10-18T04:10:59.072Z,26.27
2022-10-18T04:11:29.110Z,26.27
2022-10-18T04:11:59.146Z,26.26
2022-10-18T04:12:29.495Z,26.26
2022-10-18T04:12:59.227Z,26.27
2022-10-18T04:13:29.251Z,26.27
2022-10-18T04:13:59.276Z,26.29
2022-10-18T04:14:29.303Z,26.32
2022-10-18T04:14:59.323Z,26.30
2022-10-18T04:15:29.351Z,26.32
2022-10-18T04:15:59.382Z,26.33
2022-10-18T04:16:29.445Z,26.33
2022-10-18T04:16:59.465Z,26.33
2022-10-18T04:17:29.644Z,26.33
2022-10-18T04:17:59.580Z,26.34
2022-10-18T04:18:29.604Z,26.36
2022-10-18T04:18:59.633Z,26.36
2022-10-18T04:19:29.666Z,26.37
2022-10-18T04:19:59.689Z,26.37
2022-10-18T04:20:29.718Z,26.34
2022-10-18T04:20:59.744Z,26.39
2022-10-18T04:21:29.794Z,26.39
2022-10-18T04:21:59.820Z,26.40
2022-10-18T04:22:29.845Z,26.39
2022-10-18T04:22:59.873Z,26.40
2022-10-18T04:23:31.835Z,26.43
2022-10-18T04:23:59.940Z,26.36
2022-10-18T04:24:29.994Z,26.33
2022-10-18T04:24:59.993Z,26.34
2022-10-18T04:25:30.091Z,26.33
2022-10-18T04:26:00.151Z,26.32
2022-10-18T04:26:30.156Z,26.29
2022-10-18T04:27:00.174Z,26.32
2022-10-18T04:27:30.470Z,26.32
2022-10-18T04:28:00.228Z,26.32
2022-10-18T04:28:30.291Z,26.32
2022-10-18T04:29:00.431Z,26.33
2022-10-18T04:29:30.369Z,26.30
2022-10-18T04:30:00.393Z,26.33
2022-10-18T04:30:30.417Z,26.34
2022-10-18T04:31:00.439Z,26.33
2022-10-18T04:31:30.489Z,26.33
2022-10-18T04:32:00.513Z,26.36
2022-10-18T04:32:30.540Z,26.34
2022-10-18T04:33:00.572Z,26.33
2022-10-18T04:33:30.593Z,26.36
2022-10-18T04:34:00.617Z,26.37
2022-10-18T04:34:30.700Z,26.39
2022-10-18T04:35:00.742Z,26.42
2022-10-18T04:35:30.829Z,26.39
2022-10-18T04:36:00.879Z,26.43
2022-10-18T04:36:30.934Z,26.42
2022-10-18T04:37:00.952Z,26.40
2022-10-18T04:37:31.373Z,26.44
2022-10-18T04:38:01.058Z,26.44
2022-10-18T04:38:31.086Z,26.46
2022-10-18T04:39:01.112Z,26.48
2022-10-18T04:39:31.133Z,26.46
2022-10-18T04:40:01.181Z,26.47
2022-10-18T04:40:31.182Z,26.47
2022-10-18T04:41:01.206Z,26.51
2022-10-18T04:41:31.259Z,26.48
2022-10-18T04:42:01.289Z,26.51
2022-10-18T04:42:31.314Z,26.53
2022-10-18T04:43:01.348Z,26.51
2022-10-18T04:43:31.373Z,26.55
2022-10-18T04:44:01.404Z,26.53
2022-10-18T04:44:31.429Z,26.55
2022-10-18T04:45:01.466Z,26.55
2022-10-18T04:45:31.493Z,26.55
2022-10-18T04:46:01.521Z,26.57
2022-10-18T04:46:31.562Z,26.57
2022-10-18T04:47:40.500Z,26.54
2022-10-18T04:48:10.578Z,26.54
2022-10-18T04:48:40.653Z,26.53
2022-10-18T04:49:10.728Z,26.55
2022-10-18T04:49:40.797Z,26.55
2022-10-18T04:50:10.878Z,26.54
2022-10-18T04:50:40.955Z,26.57
2022-10-18T04:51:11.026Z,26.57
2022-10-18T04:51:41.116Z,26.57
2022-10-18T04:52:11.203Z,26.57
2022-10-18T04:52:41.321Z,26.55
2022-10-18T04:53:11.377Z,26.55
2022-10-18T04:53:41.452Z,26.57
2022-10-18T04:54:11.524Z,26.57
2022-10-18T04:54:41.597Z,26.58
2022-10-18T04:55:11.698Z,26.57
2022-10-18T04:55:41.766Z,26.57
2022-10-18T04:56:11.827Z,26.58
2022-10-18T04:56:41.950Z,26.58
2022-10-18T04:57:12.015Z,26.58
2022-10-18T04:57:42.125Z,26.60
2022-10-18T04:58:12.239Z,26.58
2022-10-18T04:58:42.354Z,26.57
2022-10-18T04:59:12.471Z,26.57
2022-10-18T04:59:42.586Z,26.55
2022-10-18T05:00:12.697Z,26.55
2022-10-18T05:00:42.815Z,26.58
2022-10-18T05:01:12.863Z,26.57
2022-10-18T05:01:43.023Z,26.58
2022-10-18T05:02:12.911Z,26.57
2022-10-18T05:02:43.025Z,26.57
2022-10-18T05:03:13.178Z,26.58
2022-10-18T05:03:43.162Z,26.58
2022-10-18T05:04:13.268Z,26.58
2022-10-18T05:04:43.383Z,26.58
2022-10-18T05:05:14.311Z,26.60
2022-10-18T05:06:00.915Z,26.57
2022-10-18T05:06:13.582Z,26.57
2022-10-18T05:06:43.732Z,26.60
2022-10-18T05:07:13.718Z,26.58
2022-10-18T05:07:43.833Z,26.57
2022-10-18T05:08:13.945Z,26.57
2022-10-18T05:08:44.060Z,26.58
2022-10-18T05:09:14.177Z,26.58
2022-10-18T05:09:44.296Z,26.58
2022-10-18T05:10:14.317Z,26.58
2022-10-18T05:10:44.411Z,26.58
2022-10-18T05:11:14.522Z,26.58
2022-10-18T05:11:44.643Z,26.58
2022-10-18T05:12:14.629Z,26.55
2022-10-18T05:12:44.747Z,26.57
2022-10-18T05:13:14.854Z,26.58
2022-10-18T05:13:47.220Z,26.58
2022-10-18T05:14:14.990Z,26.57
2022-10-18T05:14:45.107Z,26.54
2022-10-18T05:15:15.225Z,26.58
2022-10-18T05:15:45.333Z,26.58
2022-10-18T05:16:15.325Z,26.54
2022-10-18T05:16:45.570Z,26.57
2022-10-18T05:17:15.559Z,26.58
2022-10-18T05:17:45.671Z,26.57
2022-10-18T05:18:15.793Z,26.60
2022-10-18T05:18:45.790Z,26.58
2022-10-18T05:19:15.894Z,26.51
2022-10-18T05:19:46.005Z,26.53
2022-10-18T05:20:16.122Z,26.50
2022-10-18T05:20:46.235Z,26.50
2022-10-18T05:21:16.346Z,26.48
2022-10-18T05:21:46.470Z,26.50
2022-10-18T05:22:16.575Z,26.48
2022-10-18T05:22:46.692Z,26.51
2022-10-18T05:23:16.806Z,26.48
2022-10-18T05:23:46.922Z,26.53
2022-10-18T05:24:17.035Z,26.54
2022-10-18T05:24:47.147Z,26.51
2022-10-18T05:25:17.166Z,26.51
2022-10-18T05:25:47.255Z,26.51
2022-10-18T05:26:17.369Z,26.53
2022-10-18T05:26:47.494Z,26.54
2022-10-18T05:27:17.478Z,26.53
2022-10-18T05:27:47.601Z,26.54
2022-10-18T05:28:45.510Z,26.54
2022-10-18T05:28:47.678Z,26.57
2022-10-18T05:29:17.811Z,26.57
2022-10-18T05:29:47.720Z,26.57
2022-10-18T05:30:17.736Z,26.58
2022-10-18T05:30:47.862Z,26.58
2022-10-18T05:31:17.965Z,26.58
2022-10-18T05:31:48.082Z,26.60
2022-10-18T05:32:18.194Z,26.60
2022-10-18T05:32:48.303Z,26.64
2022-10-18T05:33:18.418Z,26.65
2022-10-18T05:33:48.554Z,26.65
2022-10-18T05:34:18.659Z,26.67
2022-10-18T05:34:48.648Z,26.65
2022-10-18T05:35:18.754Z,26.65
2022-10-18T05:35:48.871Z,26.70
2022-10-18T05:36:18.989Z,26.70
2022-10-18T05:36:48.976Z,26.70
2022-10-18T05:37:19.097Z,26.73
2022-10-18T05:37:49.202Z,26.73
2022-10-18T05:38:19.196Z,26.73
2022-10-18T05:38:49.315Z,26.77
2022-10-18T05:39:19.421Z,26.77
2022-10-18T05:39:49.535Z,26.78
2022-10-18T05:40:19.668Z,26.75
2022-10-18T05:40:49.763Z,26.77
2022-10-18T05:41:19.756Z,26.78
2022-10-18T05:41:49.868Z,26.80
2022-10-18T05:42:19.985Z,26.77
2022-10-18T05:42:50.090Z,26.77
2022-10-18T05:43:20.200Z,26.80
2022-10-18T05:43:50.318Z,26.77
2022-10-18T05:44:20.436Z,26.80
2022-10-18T05:44:50.426Z,26.80
2022-10-18T05:45:20.538Z,26.81
2022-10-18T05:45:50.651Z,26.81
2022-10-18T05:46:20.767Z,26.85
2022-10-18T05:46:50.875Z,26.82
2022-10-18T05:47:20.986Z,26.85
2022-10-18T05:47:51.054Z,26.85
2022-10-18T05:48:21.124Z,26.85
2022-10-18T05:48:51.204Z,26.85
2022-10-18T05:49:21.279Z,26.87
2022-10-18T05:49:51.354Z,26.90
2022-10-18T05:50:21.427Z,26.90
2022-10-18T05:50:51.510Z,26.91
2022-10-18T05:51:21.587Z,26.92
2022-10-18T05:51:51.663Z,26.92
2022-10-18T05:52:21.736Z,26.94
2022-10-18T05:52:51.812Z,26.92
2022-10-18T05:53:36.259Z,26.97
2022-10-18T05:53:51.990Z,26.95
2022-10-18T05:54:22.093Z,26.97
2022-10-18T05:54:52.066Z,26.99
2022-10-18T05:55:22.139Z,26.98
2022-10-18T05:55:52.286Z,26.98
2022-10-18T05:56:22.320Z,26.99
2022-10-18T05:56:52.401Z,26.99
2022-10-18T05:57:22.519Z,27.02
2022-10-18T05:57:52.503Z,27.02
2022-10-18T05:58:22.620Z,27.02
2022-10-18T05:58:52.731Z,27.02
2022-10-18T05:59:22.740Z,27.05
2022-10-18T05:59:52.878Z,27.03
2022-10-18T06:00:22.893Z,27.05
2022-10-18T06:00:53.006Z,27.08
2022-10-18T06:01:23.152Z,27.11
2022-10-18T06:01:53.174Z,27.09
2022-10-18T06:02:23.346Z,27.11
2022-10-18T06:02:55.250Z,27.08
2022-10-18T06:03:23.418Z,27.12
2022-10-18T06:03:53.561Z,27.09
2022-10-18T06:04:23.551Z,27.12
2022-10-18T06:04:53.682Z,27.13
2022-10-18T06:05:23.682Z,27.12
2022-10-18T06:05:53.806Z,27.13
2022-10-18T06:06:23.806Z,27.12
2022-10-18T06:06:53.936Z,27.13
2022-10-18T06:07:23.936Z,27.15
2022-10-18T06:07:54.050Z,27.15
2022-10-18T06:08:24.048Z,27.13
2022-10-18T06:08:54.159Z,27.12
2022-10-18T06:09:24.273Z,27.13
2022-10-18T06:09:54.385Z,27.15
2022-10-18T06:10:24.499Z,27.16
2022-10-18T06:10:54.500Z,27.13
2022-10-18T06:11:24.642Z,27.15
2022-10-18T06:11:54.620Z,27.15
2022-10-18T06:12:24.626Z,27.13
2022-10-18T06:12:54.735Z,27.15
2022-10-18T06:13:24.845Z,27.13
2022-10-18T06:13:54.957Z,27.15
2022-10-18T06:14:25.064Z,27.13
2022-10-18T06:14:55.067Z,27.15
2022-10-18T06:15:25.176Z,27.15
2022-10-18T06:15:55.328Z,27.16
2022-10-18T06:16:29.802Z,27.13
2022-10-18T06:16:55.358Z,27.13
2022-10-18T06:17:26.798Z,27.12
2022-10-18T06:17:55.494Z,27.11
2022-10-18T06:18:25.618Z,27.13
2022-10-18T06:18:55.721Z,27.11
2022-10-18T06:19:25.838Z,27.13
2022-10-18T06:19:55.952Z,27.09
2022-10-18T06:20:26.120Z,27.11
2022-10-18T06:20:56.114Z,27.09
2022-10-18T06:21:26.226Z,27.08
2022-10-18T06:21:56.339Z,27.09
2022-10-18T06:22:26.453Z,27.06
2022-10-18T06:22:56.583Z,27.08
2022-10-18T06:23:26.584Z,27.08
2022-10-18T06:23:56.708Z,27.05
2022-10-18T06:24:26.811Z,27.05
2022-10-18T06:24:57.374Z,27.05
2022-10-18T06:25:26.933Z,27.03
2022-10-18T06:25:56.951Z,27.06
2022-10-18T06:26:27.088Z,27.03
2022-10-18T06:26:57.227Z,27.06
2022-10-18T06:27:27.200Z,27.03